Time,TemperatureF,DewpointF,PressureIn,WindDirection,WindDirectionDegrees,WindSpeedMPH,WindSpeedGustMPH,Humidity,HourlyPrecipIn,Conditions,Clouds,dailyrainin,SoftwareType,DateUTC
2013-03-04 00:01:00,27.1,15.9,29.65,East,90,3.6,3.8,59,0.00,,,0.00,WSDL version 420,2013-03-04 05:01:00,
2013-03-04 00:02:00,27.1,15.8,29.65,ENE,75,3.5,3.8,59,0.00,,,0.00,WSDL version 420,2013-03-04 05:02:00,
2013-03-04 00:07:00,27.0,15.8,29.65,SE,128,0.8,3.8,59,-99.99,,,-99.99,WSDL version 420,2013-03-04 05:07:00,
2013-03-04 00:10:00,27.0,15.7,29.65,SE,143,1.9,3.8,58,0.00,,,0.00,WSDL version 420,2013-03-04 05:10:00,
2013-03-04 00:16:00,26.9,15.9,29.65,NW,315,2.1,2.9,59,0.00,,,0.00,WSDL version 420,2013-03-04 05:16:00,
2013-03-04 00:22:00,26.8,15.4,29.65,NE,39,2.2,2.9,58,0.00,,,0.00,WSDL version 420,2013-03-04 05:22:00,
2013-03-04 00:28:00,26.8,15.1,29.65,NNW,345,2.0,7.2,57,0.00,,,0.00,WSDL version 420,2013-03-04 05:28:00,
2013-03-04 00:34:00,26.8,15.2,29.65,SE,135,3.8,6.0,58,0.00,,,0.00,WSDL version 420,2013-03-04 05:34:00,
2013-03-04 00:40:00,26.8,15.2,29.65,North,11,5.7,5.8,57,0.00,,,0.00,WSDL version 420,2013-03-04 05:40:00,
2013-03-04 00:46:00,26.8,15.0,29.65,West,276,1.0,5.8,57,0.00,,,0.00,WSDL version 420,2013-03-04 05:46:00,
2013-03-04 00:52:00,26.8,15.2,29.65,SE,135,2.9,3.6,57,0.00,,,0.00,WSDL version 420,2013-03-04 05:52:00,
2013-03-04 00:58:00,26.8,15.0,29.65,NE,53,3.4,3.6,57,0.00,,,0.00,WSDL version 420,2013-03-04 05:58:00,
2013-03-04 01:04:00,26.8,15.0,29.65,ESE,122,2.2,5.4,57,0.00,,,0.00,WSDL version 420,2013-03-04 06:04:00,
2013-03-04 01:10:00,26.8,15.4,29.65,ESE,105,3.4,5.4,58,0.00,,,0.00,WSDL version 420,2013-03-04 06:10:00,
2013-03-04 01:16:00,26.8,15.2,29.65,NE,38,0.7,4.3,57,0.00,,,0.00,WSDL version 420,2013-03-04 06:16:00,
2013-03-04 01:22:00,26.8,15.2,29.65,East,83,3.1,4.3,58,0.00,,,0.00,WSDL version 420,2013-03-04 06:22:00,
2013-03-04 01:29:00,26.8,15.0,29.65,SE,143,3.3,4.0,57,0.00,,,0.00,WSDL version 420,2013-03-04 06:29:00,
2013-03-04 01:35:00,26.8,15.4,29.65,East,81,2.5,3.8,58,0.00,,,0.00,WSDL version 420,2013-03-04 06:35:00,
2013-03-04 01:41:00,26.7,15.3,29.65,SSE,150,0.5,3.6,58,0.00,,,0.00,WSDL version 420,2013-03-04 06:41:00,
2013-03-04 01:47:00,26.7,15.3,29.65,SSE,158,2.3,3.1,58,0.00,,,0.00,WSDL version 420,2013-03-04 06:47:00,
2013-03-04 01:53:00,26.6,15.2,29.65,SW,225,0.6,3.1,58,0.00,,,0.00,WSDL version 420,2013-03-04 06:53:00,
2013-03-04 01:59:00,26.6,15.2,29.65,East,83,2.3,2.9,58,0.00,,,0.00,WSDL version 420,2013-03-04 06:59:00,
2013-03-04 02:05:00,26.6,15.2,29.65,NNE,15,2.5,3.8,58,0.00,,,0.00,WSDL version 420,2013-03-04 07:05:00,
2013-03-04 02:11:00,26.6,15.2,29.65,SE,135,2.2,3.8,58,0.00,,,0.00,WSDL version 420,2013-03-04 07:11:00,
2013-03-04 02:17:00,26.6,15.2,29.65,NE,34,3.7,5.4,58,0.00,,,0.00,WSDL version 420,2013-03-04 07:17:00,
2013-03-04 02:23:00,26.6,15.2,29.65,SE,128,2.4,5.4,58,0.00,,,0.00,WSDL version 420,2013-03-04 07:23:00,
2013-03-04 02:29:00,26.4,15.1,29.65,SSW,210,0.9,3.1,58,0.00,,,0.00,WSDL version 420,2013-03-04 07:29:00,
2013-03-04 02:35:00,26.4,15.3,29.65,ESE,120,1.9,2.9,59,0.00,,,0.00,WSDL version 420,2013-03-04 07:35:00,
2013-03-04 02:41:00,26.4,15.3,29.65,SE,135,2.7,2.9,58,0.00,,,0.00,WSDL version 420,2013-03-04 07:41:00,
2013-03-04 02:47:00,26.4,15.1,29.65,WNW,300,1.3,3.6,58,0.00,,,0.00,WSDL version 420,2013-03-04 07:47:00,
2013-03-04 02:53:00,26.4,15.1,29.65,North,354,1.2,3.6,58,0.00,,,0.00,WSDL version 420,2013-03-04 07:53:00,
2013-03-04 02:59:00,26.4,15.1,29.65,East,90,2.7,4.3,58,0.00,,,0.00,WSDL version 420,2013-03-04 07:59:00,
2013-03-04 03:05:00,26.4,15.1,29.65,North,8,1.5,4.3,58,0.00,,,0.00,WSDL version 420,2013-03-04 08:05:00,
2013-03-04 03:11:00,26.4,15.1,29.65,SE,128,1.7,2.5,58,0.00,,,0.00,WSDL version 420,2013-03-04 08:11:00,
2013-03-04 03:17:00,26.4,14.8,29.65,NNE,30,3.3,4.3,57,0.00,,,0.00,WSDL version 420,2013-03-04 08:17:00,
2013-03-04 03:23:00,26.3,14.8,29.65,West,270,0.4,4.3,58,0.00,,,0.00,WSDL version 420,2013-03-04 08:23:00,
2013-03-04 03:29:00,26.4,15.1,29.65,SE,128,2.2,2.7,58,0.00,,,0.00,WSDL version 420,2013-03-04 08:29:00,
2013-03-04 03:36:00,26.2,14.8,29.65,South,186,3.0,4.3,57,0.00,,,0.00,WSDL version 420,2013-03-04 08:36:00,
2013-03-04 03:42:00,26.3,14.8,29.65,East,83,3.0,4.3,58,0.00,,,0.00,WSDL version 420,2013-03-04 08:42:00,
2013-03-04 03:48:00,26.3,14.8,29.65,NE,56,3.1,4.0,58,0.00,,,0.00,WSDL version 420,2013-03-04 08:48:00,
2013-03-04 03:54:00,26.4,15.0,29.65,North,360,1.1,4.7,58,0.00,,,0.00,WSDL version 420,2013-03-04 08:54:00,
2013-03-04 04:00:00,26.4,15.1,29.65,ENE,68,2.2,4.7,58,0.00,,,0.00,WSDL version 420,2013-03-04 09:00:00,
2013-03-04 04:06:00,26.3,14.9,29.65,NE,45,3.1,3.1,58,0.00,,,0.00,WSDL version 420,2013-03-04 09:06:00,
2013-03-04 04:12:00,26.2,14.9,29.65,South,174,1.8,3.1,58,0.00,,,0.00,WSDL version 420,2013-03-04 09:12:00,
2013-03-04 04:18:00,26.2,14.9,29.65,SE,141,1.6,3.8,58,0.00,,,0.00,WSDL version 420,2013-03-04 09:18:00,
2013-03-04 04:24:00,26.2,14.9,29.65,East,79,3.9,4.3,58,0.00,,,0.00,WSDL version 420,2013-03-04 09:24:00,
2013-03-04 04:30:00,26.1,14.8,29.65,ESE,120,3.4,4.3,58,0.00,,,0.00,WSDL version 420,2013-03-04 09:30:00,
2013-03-04 04:36:00,26.1,14.7,29.65,SE,135,3.3,4.0,58,0.00,,,0.00,WSDL version 420,2013-03-04 09:36:00,
2013-03-04 04:42:00,26.1,14.7,29.65,NE,45,2.2,4.0,58,0.00,,,0.00,WSDL version 420,2013-03-04 09:42:00,
2013-03-04 04:48:00,26.1,14.8,29.65,ENE,68,1.7,4.5,59,0.00,,,0.00,WSDL version 420,2013-03-04 09:48:00,
2013-03-04 04:54:00,-999.0,-99.9,29.65,ENE,68,3.1,5.6,-999,0.00,,,0.00,WSDL version 420,2013-03-04 09:54:00,
2013-03-04 05:00:00,26.1,15.1,29.65,East,90,2.2,3.8,59,0.00,,,0.00,WSDL version 420,2013-03-04 10:00:00,
2013-03-04 05:06:00,26.1,15.1,29.65,ENE,60,0.9,3.1,59,0.00,,,0.00,WSDL version 420,2013-03-04 10:06:00,
2013-03-04 05:12:00,26.1,15.1,29.65,NNW,338,2.3,3.1,59,0.00,,,0.00,WSDL version 420,2013-03-04 10:12:00,
2013-03-04 05:18:00,25.9,15.1,29.65,East,84,2.6,3.6,60,0.00,,,0.00,WSDL version 420,2013-03-04 10:18:00,
2013-03-04 05:24:00,25.9,15.3,29.65,North,360,4.0,4.9,61,0.00,,,0.00,WSDL version 420,2013-03-04 10:24:00,
2013-03-04 05:30:00,25.8,15.3,29.65,ESE,105,2.5,4.9,60,0.00,,,0.00,WSDL version 420,2013-03-04 10:30:00,
2013-03-04 05:36:00,25.7,15.4,29.65,North,360,1.7,3.4,61,0.00,,,0.00,WSDL version 420,2013-03-04 10:36:00,
2013-03-04 05:42:00,25.7,15.4,29.68,NNE,23,1.3,3.6,61,0.00,,,0.00,WSDL version 420,2013-03-04 10:42:00,
2013-03-04 05:48:00,25.7,15.4,29.68,SE,135,0.7,3.6,61,0.00,,,0.00,WSDL version 420,2013-03-04 10:48:00,
2013-03-04 05:55:00,25.7,15.5,29.68,WSW,255,0.0,3.1,62,0.00,,,0.00,WSDL version 420,2013-03-04 10:55:00,
2013-03-04 06:01:00,25.8,15.8,29.68,North,11,0.7,1.6,62,0.00,,,0.00,WSDL version 420,2013-03-04 11:01:00,
2013-03-04 06:07:00,25.9,15.9,29.68,East,98,0.9,4.3,62,0.00,,,0.00,WSDL version 420,2013-03-04 11:07:00,
2013-03-04 06:13:00,25.8,15.8,29.68,SSW,203,0.0,2.7,62,0.00,,,0.00,WSDL version 420,2013-03-04 11:13:00,
2013-03-04 06:19:00,25.7,15.7,29.68,SSE,150,1.3,2.5,62,0.00,,,0.00,WSDL version 420,2013-03-04 11:19:00,
2013-03-04 06:25:00,25.8,15.8,29.68,South,180,0.0,2.9,62,0.00,,,0.00,WSDL version 420,2013-03-04 11:25:00,
2013-03-04 06:31:00,25.7,15.9,29.68,South,173,0.9,2.9,63,0.00,,,0.00,WSDL version 420,2013-03-04 11:31:00,
2013-03-04 06:37:00,25.9,16.2,29.68,WSW,240,0.0,1.3,63,0.00,,,0.00,WSDL version 420,2013-03-04 11:37:00,
2013-03-04 06:43:00,25.9,16.1,29.68,North,360,0.0,2.2,62,0.00,,,0.00,WSDL version 420,2013-03-04 11:43:00,
2013-03-04 06:49:00,26.1,16.4,29.68,ENE,68,2.1,2.9,63,0.00,,,0.00,WSDL version 420,2013-03-04 11:49:00,
2013-03-04 06:55:00,26.1,16.5,29.68,SSE,158,0.0,2.9,63,0.00,,,0.00,WSDL version 420,2013-03-04 11:55:00,
2013-03-04 07:01:00,26.2,16.6,29.68,SE,135,2.0,2.5,63,0.00,,,0.00,WSDL version 420,2013-03-04 12:01:00,
2013-03-04 07:07:00,26.5,16.8,29.68,ESE,113,2.5,2.7,63,0.00,,,0.00,WSDL version 420,2013-03-04 12:07:00,
2013-03-04 07:13:00,26.6,16.9,29.68,ESE,120,2.2,2.7,63,0.00,,,0.00,WSDL version 420,2013-03-04 12:13:00,
2013-03-04 07:19:00,26.9,17.2,29.68,East,99,2.0,3.6,63,0.00,,,0.00,WSDL version 420,2013-03-04 12:19:00,
2013-03-04 07:25:00,27.0,17.3,29.68,ESE,105,2.8,3.6,63,0.00,,,0.00,WSDL version 420,2013-03-04 12:25:00,
2013-03-04 07:31:00,27.0,16.9,29.68,NE,34,1.7,3.4,62,0.00,,,0.00,WSDL version 420,2013-03-04 12:31:00,
2013-03-04 07:37:00,27.2,17.2,29.68,SSE,165,0.0,3.4,62,0.00,,,0.00,WSDL version 420,2013-03-04 12:37:00,
2013-03-04 07:43:00,27.3,17.3,29.68,South,173,0.5,2.7,62,0.00,,,0.00,WSDL version 420,2013-03-04 12:43:00,
2013-03-04 07:49:00,27.6,17.7,29.68,ESE,120,2.8,2.9,62,0.00,,,0.00,WSDL version 420,2013-03-04 12:49:00,
2013-03-04 07:55:00,27.8,17.9,29.68,SSW,210,0.0,2.9,62,0.00,,,0.00,WSDL version 420,2013-03-04 12:55:00,
2013-03-04 08:01:00,27.8,17.4,29.68,ESE,113,0.0,2.9,61,0.00,,,0.00,WSDL version 420,2013-03-04 13:01:00,
2013-03-04 08:07:00,28.0,17.9,29.68,East,90,1.3,2.0,62,0.00,,,0.00,WSDL version 420,2013-03-04 13:07:00,
2013-03-04 08:13:00,28.2,18.0,29.68,WNW,293,1.6,3.1,61,0.00,,,0.00,WSDL version 420,2013-03-04 13:13:00,
2013-03-04 08:19:00,28.3,18.2,29.68,ESE,120,1.3,3.6,62,0.00,,,0.00,WSDL version 420,2013-03-04 13:19:00,
2013-03-04 08:26:00,28.5,18.2,29.68,East,98,2.1,3.6,61,0.00,,,0.00,WSDL version 420,2013-03-04 13:26:00,
2013-03-04 08:32:00,28.7,18.2,29.68,SW,225,2.2,3.1,61,0.00,,,0.00,WSDL version 420,2013-03-04 13:32:00,
2013-03-04 08:38:00,28.9,18.5,29.68,SE,135,3.7,4.0,61,0.00,,,0.00,WSDL version 420,2013-03-04 13:38:00,
2013-03-04 08:44:00,28.9,18.7,29.68,South,169,2.2,4.0,62,0.00,,,0.00,WSDL version 420,2013-03-04 13:44:00,
2013-03-04 08:50:00,29.7,19.4,29.68,NE,45,1.3,3.1,61,0.00,,,0.00,WSDL version 420,2013-03-04 13:50:00,
2013-03-04 08:56:00,30.3,19.7,29.68,ENE,68,2.5,4.7,60,0.00,,,0.00,WSDL version 420,2013-03-04 13:56:00,
2013-03-04 09:02:00,31.2,20.3,29.68,ENE,68,4.5,5.8,60,0.00,,,0.00,WSDL version 420,2013-03-04 14:02:00,
2013-03-04 09:08:00,32.1,19.8,29.68,SE,124,3.6,5.8,58,0.00,,,0.00,WSDL version 420,2013-03-04 14:08:00,
2013-03-04 09:14:00,32.4,19.2,29.68,NNE,28,3.3,5.8,58,0.00,,,0.00,WSDL version 420,2013-03-04 14:14:00,
2013-03-04 09:20:00,32.9,19.7,29.68,SE,135,3.1,4.3,58,0.00,,,0.00,WSDL version 420,2013-03-04 14:20:00,
2013-03-04 09:26:00,33.4,19.8,29.68,ENE,68,4.3,4.3,57,0.00,,,0.00,WSDL version 420,2013-03-04 14:26:00,
2013-03-04 09:32:00,33.8,19.9,29.68,North,354,1.8,4.3,56,0.00,,,0.00,WSDL version 420,2013-03-04 14:32:00,
2013-03-04 09:38:00,34.5,20.0,29.68,NE,45,5.8,5.8,55,0.00,,,0.00,WSDL version 420,2013-03-04 14:38:00,
2013-03-04 09:44:00,34.6,20.1,29.68,WNW,293,3.1,6.3,55,0.00,,,0.00,WSDL version 420,2013-03-04 14:44:00,
2013-03-04 09:50:00,35.5,20.5,29.68,SE,141,4.1,6.5,54,0.00,,,0.00,WSDL version 420,2013-03-04 14:50:00,
2013-03-04 09:56:00,35.8,20.2,29.68,SE,135,4.3,6.5,52,0.00,,,0.00,WSDL version 420,2013-03-04 14:56:00,
2013-03-04 10:02:00,35.4,19.5,29.68,East,90,3.4,5.8,52,0.00,,,0.00,WSDL version 420,2013-03-04 15:02:00,
2013-03-04 10:08:00,35.4,19.7,29.68,North,360,5.8,5.8,52,0.00,,,0.00,WSDL version 420,2013-03-04 15:08:00,
2013-03-04 10:14:00,35.1,19.3,29.68,SE,124,4.7,5.8,52,0.00,,,0.00,WSDL version 420,2013-03-04 15:14:00,
2013-03-04 10:20:00,34.8,19.3,29.68,NNW,338,3.1,5.4,54,0.00,,,0.00,WSDL version 420,2013-03-04 15:20:00,
2013-03-04 10:26:00,34.5,18.5,29.68,SSW,210,2.8,10.5,52,0.00,,,0.00,WSDL version 420,2013-03-04 15:26:00,
2013-03-04 10:33:00,36.6,20.4,29.68,SE,128,3.1,6.0,51,0.00,,,0.00,WSDL version 420,2013-03-04 15:33:00,
2013-03-04 10:39:00,37.9,21.4,29.68,WNW,300,4.0,5.4,51,0.00,,,0.00,WSDL version 420,2013-03-04 15:39:00,
2013-03-04 10:45:00,37.7,20.9,29.68,East,90,1.9,5.4,50,0.00,,,0.00,WSDL version 420,2013-03-04 15:45:00,
2013-03-04 10:51:00,37.8,21.3,29.68,WNW,293,4.3,4.3,51,0.00,,,0.00,WSDL version 420,2013-03-04 15:51:00,
2013-03-04 10:57:00,38.5,21.4,29.68,West,270,4.6,5.8,50,0.00,,,0.00,WSDL version 420,2013-03-04 15:57:00,
2013-03-04 11:03:00,38.7,21.4,29.68,WSW,248,1.6,7.8,50,0.00,,,0.00,WSDL version 420,2013-03-04 16:03:00,
2013-03-04 11:09:00,38.4,20.9,29.68,North,353,2.3,7.8,49,0.00,,,0.00,WSDL version 420,2013-03-04 16:09:00,
2013-03-04 11:15:00,38.4,20.8,29.68,ESE,113,3.1,3.1,49,0.00,,,0.00,WSDL version 420,2013-03-04 16:15:00,
2013-03-04 11:21:00,37.6,20.2,29.68,NE,45,2.5,3.1,49,0.00,,,0.00,WSDL version 420,2013-03-04 16:21:00,
2013-03-04 11:27:00,37.9,20.6,29.68,SW,225,2.0,3.1,49,0.00,,,0.00,WSDL version 420,2013-03-04 16:27:00,
2013-03-04 11:33:00,38.8,21.3,29.68,NE,56,2.6,3.6,49,0.00,,,0.00,WSDL version 420,2013-03-04 16:33:00,
2013-03-04 11:39:00,39.0,21.5,29.68,East,90,1.6,6.3,49,0.00,,,0.00,WSDL version 420,2013-03-04 16:39:00,
2013-03-04 11:45:00,39.6,21.0,29.68,ESE,113,6.3,6.3,47,0.00,,,0.00,WSDL version 420,2013-03-04 16:45:00,
2013-03-04 11:51:00,40.5,22.2,29.68,ESE,113,6.3,6.3,47,0.00,,,0.00,WSDL version 420,2013-03-04 16:51:00,
2013-03-04 11:57:00,41.2,22.7,29.65,SSE,158,0.9,6.3,46,0.00,,,0.00,WSDL version 420,2013-03-04 16:57:00,
2013-03-04 12:03:00,41.7,22.8,29.65,SSE,158,0.9,6.3,48,0.00,,,0.00,WSDL version 420,2013-03-04 17:03:00,
2013-03-04 12:09:00,41.4,22.3,29.65,SSE,158,0.9,0.9,46,0.00,,,0.00,WSDL version 420,2013-03-04 17:09:00,
2013-03-04 12:15:00,41.3,21.8,29.65,North,-999,-999.0,-999.0,46,0.00,,,0.00,WSDL version 420,2013-03-04 17:15:00,
2013-03-04 12:21:00,39.3,19.9,29.65,ESE,113,2.7,6.7,46,0.00,,,0.00,WSDL version 420,2013-03-04 17:21:00,
2013-03-04 12:27:00,40.8,21.6,29.65,ESE,113,2.7,2.7,46,0.00,,,0.00,WSDL version 420,2013-03-04 17:27:00,
2013-03-04 12:33:00,41.4,22.1,29.65,North,-999,-999.0,-999.0,45,0.00,,,0.00,WSDL version 420,2013-03-04 17:33:00,
2013-03-04 12:39:00,41.7,21.9,29.65,North,-999,-999.0,-999.0,45,0.00,,,0.00,WSDL version 420,2013-03-04 17:39:00,
2013-03-04 12:45:00,41.9,22.3,29.65,North,-999,-999.0,-999.0,46,0.00,,,0.00,WSDL version 420,2013-03-04 17:45:00,
2013-03-04 12:51:00,40.2,20.6,29.65,North,-999,-999.0,-999.0,45,0.00,,,0.00,WSDL version 420,2013-03-04 17:51:00,
2013-03-04 12:58:00,40.0,20.3,29.65,North,-999,-999.0,-999.0,45,0.00,,,0.00,WSDL version 420,2013-03-04 17:58:00,
2013-03-04 13:04:00,39.7,20.7,29.65,North,-999,-999.0,-999.0,46,0.00,,,0.00,WSDL version 420,2013-03-04 18:04:00,
2013-03-04 13:10:00,39.3,19.7,29.65,North,-999,-999.0,-999.0,45,0.00,,,0.00,WSDL version 420,2013-03-04 18:10:00,
2013-03-04 13:16:00,39.1,19.6,29.65,NE,45,7.6,7.6,45,0.00,,,0.00,WSDL version 420,2013-03-04 18:16:00,
2013-03-04 13:22:00,38.7,19.2,29.65,NE,45,7.6,7.6,45,0.00,,,0.00,WSDL version 420,2013-03-04 18:22:00,
2013-03-04 13:28:00,39.0,20.1,29.65,North,-999,-999.0,-999.0,46,0.00,,,0.00,WSDL version 420,2013-03-04 18:28:00,
2013-03-04 13:30:00,39.0,20.3,29.65,North,-999,-999.0,-999.0,47,0.00,,,0.00,WSDL version 420,2013-03-04 18:30:00,
2013-03-04 13:31:00,39.0,20.2,29.65,North,-999,-999.0,-999.0,46,0.00,,,0.00,WSDL version 420,2013-03-04 18:31:00,
2013-03-04 13:33:00,39.0,20.2,29.65,North,-999,-999.0,-999.0,46,0.00,,,0.00,WSDL version 420,2013-03-04 18:33:00,
2013-03-04 13:39:00,39.0,20.2,29.65,North,-999,-999.0,-999.0,46,0.00,,,0.00,WSDL version 420,2013-03-04 18:39:00,
2013-03-04 13:40:00,39.1,20.1,29.65,North,-999,-999.0,-999.0,46,0.00,,,0.00,WSDL version 420,2013-03-04 18:40:00,
2013-03-04 13:46:00,39.7,20.4,29.65,North,-999,-999.0,-999.0,46,0.00,,,0.00,WSDL version 420,2013-03-04 18:46:00,
2013-03-04 13:52:00,39.8,20.2,29.65,North,-999,-999.0,-999.0,45,0.00,,,0.00,WSDL version 420,2013-03-04 18:52:00,
2013-03-04 13:58:00,40.3,20.5,29.65,East,90,4.3,4.3,45,0.00,,,0.00,WSDL version 420,2013-03-04 18:58:00,
2013-03-04 14:04:00,39.7,19.6,29.65,East,83,4.5,6.5,44,0.00,,,0.00,WSDL version 420,2013-03-04 19:04:00,
2013-03-04 14:11:00,39.0,19.6,29.65,ENE,68,4.0,6.5,46,0.00,,,0.00,WSDL version 420,2013-03-04 19:11:00,
2013-03-04 14:17:00,39.4,20.3,29.65,ENE,68,4.0,4.0,47,0.00,,,0.00,WSDL version 420,2013-03-04 19:17:00,
2013-03-04 14:23:00,38.9,19.9,29.65,North,-999,-999.0,-999.0,46,0.00,,,0.00,WSDL version 420,2013-03-04 19:23:00,
2013-03-04 14:29:00,39.2,19.6,29.65,East,90,5.4,5.4,44,0.00,,,0.00,WSDL version 420,2013-03-04 19:29:00,
2013-03-04 14:35:00,39.3,20.1,29.65,East,90,5.4,5.4,46,0.00,,,0.00,WSDL version 420,2013-03-04 19:35:00,
2013-03-04 14:41:00,39.9,20.6,29.65,East,90,5.4,5.4,45,0.00,,,0.00,WSDL version 420,2013-03-04 19:41:00,
2013-03-04 14:47:00,40.1,20.5,29.65,North,-999,-999.0,-999.0,45,0.00,,,0.00,WSDL version 420,2013-03-04 19:47:00,
2013-03-04 14:53:00,40.8,21.2,29.65,North,-999,-999.0,-999.0,45,0.00,,,0.00,WSDL version 420,2013-03-04 19:53:00,
2013-03-04 14:59:00,41.0,20.5,29.65,North,-999,-999.0,-999.0,43,0.00,,,0.00,WSDL version 420,2013-03-04 19:59:00,
2013-03-04 15:05:00,40.8,21.0,29.65,North,-999,-999.0,-999.0,44,0.00,,,0.00,WSDL version 420,2013-03-04 20:05:00,
2013-03-04 15:11:00,40.6,20.8,29.65,North,-999,-999.0,-999.0,45,0.00,,,0.00,WSDL version 420,2013-03-04 20:11:00,
2013-03-04 15:17:00,40.1,19.9,29.65,North,-999,-999.0,-999.0,44,0.00,,,0.00,WSDL version 420,2013-03-04 20:17:00,
2013-03-04 15:23:00,39.7,20.1,29.65,North,-999,-999.0,-999.0,46,0.00,,,0.00,WSDL version 420,2013-03-04 20:23:00,
2013-03-04 15:29:00,39.8,20.0,29.65,North,-999,-999.0,-999.0,45,0.00,,,0.00,WSDL version 420,2013-03-04 20:29:00,
2013-03-04 15:35:00,39.7,19.9,29.65,ESE,113,3.1,3.8,45,0.00,,,0.00,WSDL version 420,2013-03-04 20:35:00,
2013-03-04 15:41:00,39.3,19.7,29.65,SE,135,3.8,3.8,45,0.00,,,0.00,WSDL version 420,2013-03-04 20:41:00,
2013-03-04 15:47:00,38.7,19.2,29.65,SE,135,3.8,3.8,45,0.00,,,0.00,WSDL version 420,2013-03-04 20:47:00,
2013-03-04 15:53:00,38.7,19.3,29.68,North,-999,-999.0,-999.0,45,0.00,,,0.00,WSDL version 420,2013-03-04 20:53:00,
2013-03-04 16:00:00,38.2,18.8,29.68,North,-999,-999.0,-999.0,45,0.00,,,0.00,WSDL version 420,2013-03-04 21:00:00,
2013-03-04 16:06:00,38.0,19.1,29.68,North,-999,-999.0,-999.0,46,0.00,,,0.00,WSDL version 420,2013-03-04 21:06:00,
2013-03-04 16:12:00,37.7,18.3,29.68,North,-999,-999.0,-999.0,45,0.00,,,0.00,WSDL version 420,2013-03-04 21:12:00,
2013-03-04 16:18:00,37.4,18.7,29.68,North,-999,-999.0,-999.0,46,0.00,,,0.00,WSDL version 420,2013-03-04 21:18:00,
2013-03-04 16:24:00,37.0,18.2,29.68,North,-999,-999.0,-999.0,46,0.00,,,0.00,WSDL version 420,2013-03-04 21:24:00,
2013-03-04 16:30:00,36.7,18.0,29.68,North,-999,-999.0,-999.0,46,0.00,,,0.00,WSDL version 420,2013-03-04 21:30:00,
2013-03-04 16:36:00,36.6,17.7,29.68,North,-999,-999.0,-999.0,46,0.00,,,0.00,WSDL version 420,2013-03-04 21:36:00,
2013-03-04 16:42:00,36.5,17.9,29.68,North,-999,-999.0,-999.0,47,0.00,,,0.00,WSDL version 420,2013-03-04 21:42:00,
2013-03-04 16:48:00,36.3,18.0,29.68,North,-999,-999.0,-999.0,47,0.00,,,0.00,WSDL version 420,2013-03-04 21:48:00,
2013-03-04 16:54:00,36.0,17.4,29.68,North,-999,-999.0,-999.0,46,0.00,,,0.00,WSDL version 420,2013-03-04 21:54:00,
2013-03-04 17:00:00,35.6,17.2,29.68,North,-999,-999.0,-999.0,46,0.00,,,0.00,WSDL version 420,2013-03-04 22:00:00,
2013-03-04 17:06:00,35.4,17.1,29.68,North,-999,-999.0,-999.0,47,0.00,,,0.00,WSDL version 420,2013-03-04 22:06:00,
2013-03-04 17:13:00,34.9,16.7,29.68,ESE,113,4.0,4.0,47,0.00,,,0.00,WSDL version 420,2013-03-04 22:13:00,
2013-03-04 17:19:00,34.6,16.8,29.68,ESE,113,4.0,4.0,48,0.00,,,0.00,WSDL version 420,2013-03-04 22:19:00,
2013-03-04 17:25:00,34.4,16.4,29.68,ESE,113,4.0,4.0,47,0.00,,,0.00,WSDL version 420,2013-03-04 22:25:00,
2013-03-04 17:31:00,34.3,16.6,29.68,North,-999,-999.0,-999.0,48,0.00,,,0.00,WSDL version 420,2013-03-04 22:31:00,
2013-03-04 17:37:00,34.1,16.3,29.68,North,-999,-999.0,-999.0,48,0.00,,,0.00,WSDL version 420,2013-03-04 22:37:00,
2013-03-04 17:43:00,33.9,16.2,29.71,North,-999,-999.0,-999.0,48,0.00,,,0.00,WSDL version 420,2013-03-04 22:43:00,
2013-03-04 17:49:00,33.7,16.3,29.71,North,-999,-999.0,-999.0,49,0.00,,,0.00,WSDL version 420,2013-03-04 22:49:00,
2013-03-04 17:55:00,33.5,16.4,29.71,North,-999,-999.0,-999.0,49,0.00,,,0.00,WSDL version 420,2013-03-04 22:55:00,
2013-03-04 18:01:00,33.4,16.3,29.71,North,-999,-999.0,-999.0,49,0.00,,,0.00,WSDL version 420,2013-03-04 23:01:00,
2013-03-04 18:07:00,33.2,16.2,29.71,North,-999,-999.0,-999.0,50,0.00,,,0.00,WSDL version 420,2013-03-04 23:07:00,
2013-03-04 18:13:00,33.0,16.0,29.71,North,-999,-999.0,-999.0,49,0.00,,,0.00,WSDL version 420,2013-03-04 23:13:00,
2013-03-04 18:19:00,32.7,16.1,29.71,North,-999,-999.0,-999.0,50,0.00,,,0.00,WSDL version 420,2013-03-04 23:19:00,
2013-03-04 18:25:00,32.4,15.8,29.74,North,-999,-999.0,-999.0,50,0.00,,,0.00,WSDL version 420,2013-03-04 23:25:00,
2013-03-04 18:31:00,32.2,15.7,29.74,North,-999,-999.0,-999.0,50,0.00,,,0.00,WSDL version 420,2013-03-04 23:31:00,
2013-03-04 18:37:00,32.1,16.2,29.74,North,-999,-999.0,-999.0,50,0.00,,,0.00,WSDL version 420,2013-03-04 23:37:00,
2013-03-04 18:43:00,31.8,17.1,29.74,SSE,158,2.8,4.0,50,0.00,,,0.00,WSDL version 420,2013-03-04 23:43:00,
2013-03-04 18:49:00,31.6,16.9,29.74,SE,135,4.0,4.0,50,0.00,,,0.00,WSDL version 420,2013-03-04 23:49:00,
2013-03-04 18:55:00,31.4,16.9,29.74,SE,135,4.0,4.0,50,0.00,,,0.00,WSDL version 420,2013-03-04 23:55:00,
2013-03-04 19:02:00,31.3,16.8,29.74,North,-999,-999.0,-999.0,50,0.00,,,0.00,WSDL version 420,2013-03-05 00:02:00,
2013-03-04 19:08:00,31.3,16.8,29.74,North,-999,-999.0,-999.0,50,0.00,,,0.00,WSDL version 420,2013-03-05 00:08:00,
2013-03-04 19:14:00,31.1,16.7,29.77,North,-999,-999.0,-999.0,50,0.00,,,0.00,WSDL version 420,2013-03-05 00:14:00,
2013-03-04 19:20:00,31.1,16.9,29.77,SE,135,8.1,8.1,51,0.00,,,0.00,WSDL version 420,2013-03-05 00:20:00,
2013-03-04 19:26:00,31.0,16.8,29.74,SE,135,8.1,8.1,51,0.00,,,0.00,WSDL version 420,2013-03-05 00:26:00,
2013-03-04 19:32:00,30.8,16.6,29.74,SE,135,8.1,8.1,51,0.00,,,0.00,WSDL version 420,2013-03-05 00:32:00,
2013-03-04 19:38:00,30.6,16.4,29.77,ESE,113,0.9,8.1,51,-99.99,,,-99.99,WSDL version 420,2013-03-05 00:38:00,
2013-03-04 19:46:00,30.4,16.2,29.77,SSW,203,2.0,2.0,51,0.00,,,0.00,WSDL version 420,2013-03-05 00:46:00,
2013-03-04 19:52:00,30.3,16.3,29.77,SSW,203,2.0,2.0,51,0.00,,,0.00,WSDL version 420,2013-03-05 00:52:00,
2013-03-04 19:58:00,30.3,16.3,29.77,NNE,23,0.0,2.0,52,0.00,,,0.00,WSDL version 420,2013-03-05 00:58:00,
2013-03-04 20:04:00,30.2,16.4,29.77,SSE,158,3.4,3.4,52,0.00,,,0.00,WSDL version 420,2013-03-05 01:04:00,
2013-03-04 20:10:00,30.1,16.3,29.77,SSE,158,3.4,3.4,52,0.00,,,0.00,WSDL version 420,2013-03-05 01:10:00,
2013-03-04 20:16:00,30.1,16.3,29.77,NE,45,4.0,4.0,52,0.00,,,0.00,WSDL version 420,2013-03-05 01:16:00,
2013-03-04 20:22:00,29.8,16.1,29.77,North,349,2.8,4.0,52,0.00,,,0.00,WSDL version 420,2013-03-05 01:22:00,
2013-03-04 20:28:00,29.9,16.1,29.77,NW,315,2.0,3.6,52,0.00,,,0.00,WSDL version 420,2013-03-05 01:28:00,
2013-03-04 20:34:00,29.8,16.5,29.77,SW,236,1.5,2.0,53,0.00,,,0.00,WSDL version 420,2013-03-05 01:34:00,
2013-03-04 20:41:00,29.7,16.3,29.77,East,90,5.8,5.8,53,0.00,,,0.00,WSDL version 420,2013-03-05 01:41:00,
2013-03-04 20:47:00,29.8,16.5,29.77,East,90,5.8,5.8,53,0.00,,,0.00,WSDL version 420,2013-03-05 01:47:00,
2013-03-04 20:53:00,30.0,16.6,29.77,East,90,5.8,5.8,53,0.00,,,0.00,WSDL version 420,2013-03-05 01:53:00,
2013-03-04 20:59:00,30.0,16.6,29.80,SW,225,1.3,5.8,53,0.00,,,0.00,WSDL version 420,2013-03-05 01:59:00,
2013-03-04 21:05:00,30.2,16.8,29.80,SSE,150,2.1,3.6,53,0.00,,,0.00,WSDL version 420,2013-03-05 02:05:00,
2013-03-04 21:11:00,30.2,16.8,29.80,ESE,113,0.0,3.6,53,0.00,,,0.00,WSDL version 420,2013-03-05 02:11:00,
2013-03-04 21:17:00,30.2,16.8,29.80,NNW,345,3.5,3.6,53,0.00,,,0.00,WSDL version 420,2013-03-05 02:17:00,
2013-03-04 21:23:00,30.2,16.8,29.80,NNE,30,5.4,6.5,53,0.00,,,0.00,WSDL version 420,2013-03-05 02:23:00,
2013-03-04 21:29:00,30.0,16.6,29.80,ENE,68,1.9,6.5,53,0.00,,,0.00,WSDL version 420,2013-03-05 02:29:00,
2013-03-04 21:35:00,30.1,16.7,29.80,NE,38,3.1,6.5,53,0.00,,,0.00,WSDL version 420,2013-03-05 02:35:00,
2013-03-04 21:41:00,30.1,16.7,29.80,North,360,7.8,7.8,53,0.00,,,0.00,WSDL version 420,2013-03-05 02:41:00,
2013-03-04 21:47:00,30.2,17.0,29.80,South,169,2.7,7.8,53,0.00,,,0.00,WSDL version 420,2013-03-05 02:47:00,
2013-03-04 21:53:00,30.2,17.2,29.80,ENE,68,4.7,4.7,54,0.00,,,0.00,WSDL version 420,2013-03-05 02:53:00,
2013-03-04 21:59:00,30.2,17.2,29.80,SE,124,1.8,4.7,54,0.00,,,0.00,WSDL version 420,2013-03-05 02:59:00,
2013-03-04 22:05:00,30.3,17.2,29.80,ESE,113,3.4,3.4,54,0.00,,,0.00,WSDL version 420,2013-03-05 03:05:00,
2013-03-04 22:11:00,-999.0,-99.9,29.80,North,0,0.0,3.4,-999,0.00,,,0.00,WSDL version 420,2013-03-05 03:11:00,
2013-03-04 22:17:00,30.4,17.4,29.80,NE,38,1.0,3.4,54,0.00,,,0.00,WSDL version 420,2013-03-05 03:17:00,
2013-03-04 22:23:00,30.4,17.4,29.80,North,-999,-999.0,-999.0,54,0.00,,,0.00,WSDL version 420,2013-03-05 03:23:00,
2013-03-04 22:30:00,30.2,17.2,29.80,North,360,1.6,6.5,54,0.00,,,0.00,WSDL version 420,2013-03-05 03:30:00,
2013-03-04 22:36:00,30.3,17.3,29.80,NE,45,1.6,3.8,54,0.00,,,0.00,WSDL version 420,2013-03-05 03:36:00,
2013-03-04 22:42:00,30.2,17.2,29.80,NNE,23,0.8,3.8,54,0.00,,,0.00,WSDL version 420,2013-03-05 03:42:00,
2013-03-04 22:48:00,30.0,17.0,29.80,NE,45,2.2,3.1,54,0.00,,,0.00,WSDL version 420,2013-03-05 03:48:00,
2013-03-04 22:54:00,29.9,16.9,29.80,ENE,68,3.6,5.4,54,0.00,,,0.00,WSDL version 420,2013-03-05 03:54:00,
2013-03-04 23:00:00,29.8,17.2,29.80,ENE,72,2.3,3.6,55,0.00,,,0.00,WSDL version 420,2013-03-05 04:00:00,
2013-03-04 23:06:00,29.7,17.0,29.80,NE,53,2.6,3.4,55,0.00,,,0.00,WSDL version 420,2013-03-05 04:06:00,
2013-03-04 23:12:00,29.5,16.9,29.80,ENE,75,1.8,3.8,55,0.00,,,0.00,WSDL version 420,2013-03-05 04:12:00,
2013-03-04 23:18:00,29.5,16.9,29.80,ESE,113,3.4,4.3,55,0.00,,,0.00,WSDL version 420,2013-03-05 04:18:00,
2013-03-04 23:24:00,29.2,16.7,29.80,NE,53,1.5,4.3,55,0.00,,,0.00,WSDL version 420,2013-03-05 04:24:00,
2013-03-04 23:30:00,29.2,17.0,29.80,SSW,210,0.4,3.1,56,0.00,,,0.00,WSDL version 420,2013-03-05 04:30:00,
2013-03-04 23:36:00,29.3,17.1,29.80,NE,45,2.2,4.0,56,0.00,,,0.00,WSDL version 420,2013-03-05 04:36:00,
2013-03-04 23:42:00,29.2,17.0,29.80,SSE,158,4.3,5.6,56,0.00,,,0.00,WSDL version 420,2013-03-05 04:42:00,
2013-03-04 23:48:00,29.1,16.9,29.80,ENE,75,2.8,5.6,56,0.00,,,0.00,WSDL version 420,2013-03-05 04:48:00,
2013-03-04 23:54:00,29.1,16.9,29.80,ESE,113,3.6,3.6,56,0.00,,,0.00,WSDL version 420,2013-03-05 04:54:00,